createdAt,value
2018-02-17T00:01:38.844Z,48.93
2018-02-17T00:04:07.085Z,46.37
2018-02-17T00:06:34.581Z,48.30
2018-02-17T00:09:02.820Z,49.13
2018-02-17T00:11:30.289Z,53.70
2018-02-17T00:13:57.784Z,51.67
2018-02-17T00:16:26.056Z,54.30
2018-02-17T00:18:53.526Z,53.40
2018-02-17T00:21:21.792Z,53.93
2018-02-17T00:23:49.269Z,53.70
2018-02-17T00:26:17.512Z,52.60
2018-02-17T00:28:45.004Z,53.43
2018-02-17T00:31:13.247Z,51.03
2018-02-17T00:33:40.716Z,54.47
2018-02-17T00:36:08.196Z,50.67
2018-02-17T00:38:36.441Z,56.30
2018-02-17T00:41:03.932Z,53.13
2018-02-17T00:43:31.404Z,54.83
2018-02-17T00:45:59.648Z,51.57
2018-02-17T00:48:27.132Z,53.70
2018-02-17T00:50:54.606Z,51.37
2018-02-17T00:53:22.868Z,52.80
2018-02-17T00:55:51.113Z,50.67
2018-02-17T00:58:18.588Z,53.70
2018-02-17T01:00:46.086Z,54.77
2018-02-17T01:03:14.328Z,52.30
2018-02-17T01:05:41.801Z,52.17
2018-02-17T01:08:09.296Z,53.80
2018-02-17T01:10:36.800Z,55.23
2018-02-17T01:13:04.276Z,53.47
2018-02-17T01:15:31.773Z,52.90
2018-02-17T01:17:59.245Z,51.43
2018-02-17T01:20:26.725Z,52.63
2018-02-17T01:22:54.208Z,48.07
2018-02-17T01:25:21.688Z,56.07
2018-02-17T01:27:49.977Z,48.70
2018-02-17T01:30:17.461Z,52.70
2018-02-17T01:32:44.940Z,55.03
2018-02-17T01:35:12.420Z,50.90
2018-02-17T01:37:39.892Z,47.20
2018-02-17T01:40:07.395Z,49.03
2018-02-17T01:42:34.869Z,49.60
2018-02-17T01:45:02.344Z,46.73
2018-02-17T01:47:29.837Z,54.20
2018-02-17T01:49:57.313Z,52.63
2018-02-17T01:52:25.576Z,51.87
2018-02-17T01:54:53.073Z,53.03
2018-02-17T01:57:20.544Z,52.33
2018-02-17T01:59:48.041Z,49.17
2018-02-17T02:02:15.536Z,52.27
2018-02-17T02:04:43.776Z,52.03
2018-02-17T02:07:11.256Z,50.80
2018-02-17T02:09:39.517Z,50.10
2018-02-17T02:12:06.988Z,50.37
2018-02-17T02:14:34.548Z,48.50
2018-02-17T02:17:02.041Z,50.83
2018-02-17T02:19:29.508Z,51.90
2018-02-17T02:21:56.981Z,48.10
2018-02-17T02:24:24.600Z,51.80
2018-02-17T02:26:52.837Z,53.20
2018-02-17T02:29:20.315Z,52.43
2018-02-17T02:31:47.809Z,50.70
2018-02-17T02:34:15.284Z,50.50
2018-02-17T02:36:42.758Z,51.07
2018-02-17T02:39:10.289Z,50.97
2018-02-17T02:41:37.761Z,49.30
2018-02-17T02:44:05.238Z,49.20
2018-02-17T02:46:32.738Z,50.67
2018-02-17T02:49:00.987Z,51.53
2018-02-17T02:51:28.461Z,49.77
2018-02-17T02:53:55.962Z,51.90
2018-02-17T02:56:23.436Z,47.80
2018-02-17T02:58:50.915Z,48.77
2018-02-17T03:01:18.409Z,48.70
2018-02-17T03:03:45.886Z,49.90
2018-02-17T03:06:13.376Z,48.90
2018-02-17T03:08:40.860Z,48.83
2018-02-17T03:11:08.336Z,47.67
2018-02-17T03:13:35.917Z,47.23
2018-02-17T03:16:04.173Z,48.70
2018-02-17T03:18:31.649Z,46.90
2018-02-17T03:20:59.888Z,48.40
2018-02-17T03:23:27.380Z,51.80
2018-02-17T03:25:55.629Z,49.00
2018-02-17T03:28:23.109Z,49.37
2018-02-17T03:30:50.622Z,49.60
2018-02-17T03:33:18.096Z,52.43
2018-02-17T03:35:45.597Z,47.17
2018-02-17T03:38:13.844Z,50.87
2018-02-17T03:40:41.316Z,51.57
2018-02-17T03:43:08.788Z,48.07
2018-02-17T03:45:37.049Z,50.87
2018-02-17T03:48:04.532Z,51.57
2018-02-17T03:50:32.796Z,50.50
2018-02-17T03:53:00.295Z,48.60
2018-02-17T03:55:27.817Z,48.73
2018-02-17T03:57:56.056Z,51.80
2018-02-17T04:00:23.553Z,52.10
2018-02-17T04:02:51.797Z,49.90
2018-02-17T04:05:19.271Z,52.60
2018-02-17T04:07:46.765Z,52.10
2018-02-17T04:10:14.237Z,52.10
2018-02-17T04:12:41.712Z,47.63
2018-02-17T04:15:09.204Z,49.93
2018-02-17T04:17:36.681Z,51.30
2018-02-17T04:20:04.924Z,51.87
2018-02-17T04:22:32.417Z,50.27
2018-02-17T04:25:00.688Z,52.07
2018-02-17T04:27:28.160Z,52.87
2018-02-17T04:29:56.416Z,47.47
2018-02-17T04:32:23.891Z,52.23
2018-02-17T04:34:52.132Z,51.63
2018-02-17T04:37:19.621Z,54.83
2018-02-17T04:42:56.635Z,46.83
2018-02-17T04:45:24.392Z,50.70
2018-02-17T04:48:09.528Z,50.00
2018-02-17T04:50:38.124Z,50.97
2018-02-17T04:53:05.810Z,53.47
2018-02-17T04:55:51.029Z,49.53
2018-02-17T04:58:35.400Z,48.70
2018-02-17T05:01:08.766Z,51.17
2018-02-17T05:03:51.120Z,52.13
2018-02-17T05:06:38.849Z,52.30
2018-02-17T05:09:06.317Z,52.20
2018-02-17T05:11:33.956Z,60.67
2018-02-17T05:14:01.649Z,56.77
2018-02-17T05:16:49.269Z,59.30
2018-02-17T05:19:19.229Z,58.00
2018-02-17T05:21:57.762Z,62.10
2018-02-17T05:24:31.327Z,66.07
2018-02-17T05:27:02.828Z,66.40
2018-02-17T05:29:31.257Z,66.37
2018-02-17T05:32:08.626Z,67.13
2018-02-17T05:34:41.617Z,66.93
2018-02-17T05:37:09.571Z,67.50
2018-02-17T05:39:52.325Z,68.33
2018-02-17T05:42:21.509Z,52.47
2018-02-17T05:44:53.540Z,60.10
2018-02-17T05:47:26.585Z,58.53
2018-02-17T05:50:04.752Z,59.10
2018-02-17T05:52:32.889Z,55.40
2018-02-17T05:55:00.613Z,57.33
2018-02-17T05:57:28.452Z,60.00
2018-02-17T05:59:56.008Z,61.50
2018-02-17T06:02:23.868Z,61.03
2018-02-17T06:04:51.820Z,55.67
2018-02-17T06:07:19.584Z,53.87
2018-02-17T06:09:47.771Z,53.73
2018-02-17T06:12:15.665Z,57.77
2018-02-17T06:14:43.140Z,54.57
2018-02-17T06:17:10.616Z,54.93
2018-02-17T06:19:38.875Z,55.37
2018-02-17T06:22:06.359Z,58.47
2018-02-17T06:24:34.595Z,57.33
2018-02-17T06:27:02.082Z,54.30
2018-02-17T06:29:30.320Z,61.70
2018-02-17T06:31:57.801Z,60.47
2018-02-17T06:34:25.294Z,54.47
2018-02-17T06:36:52.828Z,54.63
2018-02-17T06:39:21.064Z,56.43
2018-02-17T06:41:48.552Z,55.77
2018-02-17T06:44:16.032Z,54.77
2018-02-17T06:46:44.268Z,57.50
2018-02-17T06:49:11.759Z,54.23
2018-02-17T06:51:39.993Z,51.40
2018-02-17T06:54:07.465Z,55.93
2018-02-17T06:56:34.960Z,60.60
2018-02-17T06:59:03.229Z,58.57
2018-02-17T07:01:31.500Z,56.47
2018-02-17T07:03:58.996Z,59.83
2018-02-17T07:06:26.467Z,62.93
2018-02-17T07:08:53.983Z,61.67
2018-02-17T07:11:22.249Z,63.30
2018-02-17T07:13:49.829Z,63.97
2018-02-17T07:16:18.068Z,63.33
2018-02-17T07:18:45.560Z,57.60
2018-02-17T07:21:13.804Z,57.07
2018-02-17T07:23:41.272Z,54.87
2018-02-17T07:26:08.766Z,55.80
2018-02-17T07:28:37.044Z,54.73
2018-02-17T07:31:05.280Z,61.90
2018-02-17T07:33:32.860Z,59.27
2018-02-17T07:36:01.848Z,54.77
2018-02-17T07:38:29.321Z,57.87
2018-02-17T07:40:57.577Z,56.10
2018-02-17T07:43:25.054Z,58.90
2018-02-17T07:45:53.301Z,63.90
2018-02-17T07:48:20.792Z,62.40
2018-02-17T07:50:49.028Z,65.00
2018-02-17T07:53:16.501Z,64.87
2018-02-17T07:55:43.996Z,70.70
2018-02-17T07:58:12.236Z,66.10
2018-02-17T08:00:39.711Z,64.30
2018-02-17T08:03:07.196Z,65.40
2018-02-17T08:05:35.442Z,68.80
2018-02-17T08:08:02.922Z,66.60
2018-02-17T08:10:31.183Z,67.10
2018-02-17T08:12:58.687Z,67.33
2018-02-17T08:15:26.184Z,69.63
2018-02-17T08:17:53.668Z,70.20
2018-02-17T08:20:21.910Z,67.83
2018-02-17T08:22:49.384Z,72.80
2018-02-17T08:25:16.904Z,71.90
2018-02-17T08:27:44.377Z,71.83
2018-02-17T08:30:11.856Z,73.03
2018-02-17T08:32:39.437Z,75.23
2018-02-17T08:35:06.908Z,72.87
2018-02-17T08:37:35.149Z,74.90
2018-02-17T08:40:02.642Z,72.67
2018-02-17T08:42:30.880Z,70.60
2018-02-17T08:44:58.353Z,74.33
2018-02-17T08:47:25.849Z,72.40
2018-02-17T08:49:53.324Z,79.67
2018-02-17T08:52:20.801Z,75.83
2018-02-17T08:54:48.289Z,82.10
2018-02-17T08:57:15.778Z,79.57
2018-02-17T08:59:44.016Z,84.57
2018-02-17T09:02:11.502Z,86.50
2018-02-17T09:04:39.750Z,85.40
2018-02-17T09:07:07.244Z,90.27
2018-02-17T09:09:35.494Z,86.90
2018-02-17T09:12:02.977Z,87.53
2018-02-17T09:14:31.242Z,93.73
2018-02-17T09:16:58.809Z,86.97
2018-02-17T09:19:27.058Z,79.67
2018-02-17T09:21:54.553Z,85.80
2018-02-17T09:24:22.792Z,84.23
2018-02-17T09:26:50.269Z,90.13
2018-02-17T09:29:17.756Z,89.93
2018-02-17T09:31:45.991Z,90.40
2018-02-17T09:34:13.489Z,91.40
2018-02-17T09:36:41.728Z,87.07
2018-02-17T09:39:09.199Z,89.27
2018-02-17T09:41:36.684Z,90.03
2018-02-17T09:44:04.921Z,85.13
2018-02-17T09:46:32.397Z,82.93
2018-02-17T09:48:59.877Z,88.63
2018-02-17T09:51:28.119Z,84.87
2018-02-17T09:53:55.684Z,87.80
2018-02-17T09:56:23.177Z,88.50
2018-02-17T09:58:51.418Z,92.73
2018-02-17T10:01:18.889Z,91.57
2018-02-17T10:03:46.377Z,94.73
2018-02-17T10:06:13.868Z,94.67
2018-02-17T10:08:41.373Z,93.50
2018-02-17T10:11:09.620Z,94.60
2018-02-17T10:13:37.093Z,93.00
2018-02-17T10:16:04.581Z,91.10
2018-02-17T10:18:32.058Z,91.33
2018-02-17T10:20:59.556Z,87.33
2018-02-17T10:23:27.038Z,90.80
2018-02-17T10:25:54.517Z,89.40
2018-02-17T10:28:22.772Z,91.73
2018-02-17T10:30:51.019Z,89.60
2018-02-17T10:33:18.512Z,84.83
2018-02-17T10:35:46.758Z,91.73
2018-02-17T10:38:14.229Z,94.07
2018-02-17T10:40:42.490Z,109.07
2018-02-17T10:43:09.980Z,98.67
2018-02-17T10:45:38.233Z,101.60
2018-02-17T10:48:05.729Z,103.97
2018-02-17T10:50:34.018Z,100.23
2018-02-17T10:53:02.244Z,103.70
2018-02-17T10:55:35.544Z,101.43
2018-02-17T10:58:03.021Z,97.77
2018-02-17T11:00:30.621Z,99.30
2018-02-17T11:02:58.124Z,105.10
2018-02-17T11:05:25.601Z,107.77
2018-02-17T11:07:53.080Z,106.03
2018-02-17T11:10:21.344Z,108.13
2018-02-17T11:12:49.585Z,106.00
2018-02-17T11:15:17.061Z,109.10
2018-02-17T11:17:44.552Z,114.73
2018-02-17T11:20:12.796Z,115.27
2018-02-17T11:22:40.275Z,111.27
2018-02-17T11:25:08.536Z,112.77
2018-02-17T11:27:36.008Z,111.80
2018-02-17T11:30:04.258Z,111.40
2018-02-17T11:32:31.744Z,102.90
2018-02-17T11:35:00.020Z,107.37
2018-02-17T11:37:27.504Z,115.57
2018-02-17T11:39:55.036Z,114.00
2018-02-17T11:42:22.513Z,108.73
2018-02-17T11:44:50.789Z,107.93
2018-02-17T11:47:19.033Z,107.83
2018-02-17T11:49:46.541Z,109.80
2018-02-17T11:52:14.017Z,106.87
2018-02-17T11:54:41.497Z,111.80
2018-02-17T11:57:08.999Z,111.00
2018-02-17T11:59:37.244Z,109.47
2018-02-17T12:02:04.920Z,103.60
2018-02-17T12:04:32.427Z,106.30
2018-02-17T12:06:59.909Z,107.87
2018-02-17T12:09:27.406Z,108.77
2018-02-17T12:11:55.653Z,110.90
2018-02-17T12:14:23.136Z,110.20
2018-02-17T12:16:51.408Z,113.80
2018-02-17T12:19:18.901Z,111.47
2018-02-17T12:21:46.372Z,116.23
2018-02-17T12:24:13.901Z,114.07
2018-02-17T12:26:42.202Z,122.90
2018-02-17T12:29:09.643Z,120.17
2018-02-17T12:31:37.908Z,116.63
2018-02-17T12:34:06.158Z,114.97
2018-02-17T12:36:33.641Z,121.50
2018-02-17T12:39:01.924Z,121.20
2018-02-17T12:41:30.193Z,116.87
2018-02-17T12:43:57.696Z,111.17
2018-02-17T12:46:25.193Z,112.10
2018-02-17T12:48:52.668Z,115.60
2018-02-17T12:51:20.921Z,113.77
2018-02-17T12:53:48.428Z,115.83
2018-02-17T12:56:16.672Z,121.90
2018-02-17T12:58:44.155Z,116.67
2018-02-17T13:01:12.440Z,120.10
2018-02-17T13:03:40.693Z,120.13
2018-02-17T13:06:08.964Z,119.53
2018-02-17T13:08:36.456Z,113.43
2018-02-17T13:11:04.728Z,124.20
2018-02-17T13:13:33.033Z,115.67
2018-02-17T13:16:00.518Z,115.33
2018-02-17T13:18:27.996Z,117.07
2018-02-17T13:20:55.473Z,119.23
2018-02-17T13:23:23.893Z,122.27
2018-02-17T13:25:51.383Z,112.13
2018-02-17T13:28:24.926Z,112.77
2018-02-17T13:30:53.198Z,111.60
2018-02-17T13:33:20.850Z,120.13
2018-02-17T13:35:49.132Z,109.20
2018-02-17T13:38:17.380Z,104.07
2018-02-17T13:40:44.869Z,103.70
2018-02-17T13:43:13.373Z,102.67
2018-02-17T13:45:41.062Z,95.70
2018-02-17T13:48:08.546Z,98.00
2018-02-17T13:50:36.049Z,97.33
2018-02-17T13:53:03.584Z,100.83
2018-02-17T13:55:31.074Z,101.30
2018-02-17T13:57:58.891Z,101.30
2018-02-17T14:00:26.369Z,96.70
2018-02-17T14:02:54.720Z,95.93
2018-02-17T14:05:22.253Z,102.27
2018-02-17T14:07:49.808Z,102.70
2018-02-17T14:10:17.364Z,108.97
2018-02-17T14:12:44.936Z,111.70
2018-02-17T14:15:12.441Z,110.93
2018-02-17T14:17:40.050Z,105.20
2018-02-17T14:20:07.542Z,102.90
2018-02-17T14:22:35.072Z,101.60
2018-02-17T14:25:02.579Z,94.07
2018-02-17T14:27:30.138Z,94.20
2018-02-17T14:29:57.604Z,91.03
2018-02-17T14:32:25.212Z,95.17
2018-02-17T14:34:52.838Z,93.77
2018-02-17T14:37:21.142Z,94.60
2018-02-17T14:39:48.672Z,91.43
2018-02-17T14:42:16.936Z,92.07
2018-02-17T14:44:44.437Z,94.77
2018-02-17T14:47:12.006Z,89.83
2018-02-17T14:49:39.485Z,86.33
2018-02-17T14:52:06.969Z,88.37
2018-02-17T14:54:34.589Z,83.87
2018-02-17T14:57:02.095Z,85.37
2018-02-17T14:59:30.565Z,90.10
2018-02-17T15:01:58.056Z,88.43
2018-02-17T15:04:26.304Z,94.53
2018-02-17T15:06:53.806Z,94.17
2018-02-17T15:09:22.060Z,96.10
2018-02-17T15:11:50.404Z,96.23
2018-02-17T15:14:18.012Z,95.20
2018-02-17T15:16:45.587Z,94.83
2018-02-17T15:19:13.231Z,88.90
2018-02-17T15:21:41.506Z,92.53
2018-02-17T15:24:09.758Z,95.93
2018-02-17T15:26:37.393Z,87.57
2018-02-17T15:29:05.096Z,87.50
2018-02-17T15:31:32.780Z,85.67
2018-02-17T15:34:01.332Z,83.67
2018-02-17T15:36:28.808Z,83.40
2018-02-17T15:38:56.326Z,80.70
2018-02-17T15:41:23.805Z,87.70
2018-02-17T15:43:51.280Z,94.80
2018-02-17T15:46:19.055Z,93.00
2018-02-17T15:48:46.551Z,96.03
2018-02-17T15:51:14.040Z,101.60
2018-02-17T15:53:41.644Z,106.20
2018-02-17T15:56:10.031Z,98.40
2018-02-17T15:58:38.458Z,102.70
2018-02-17T16:01:06.093Z,104.97
2018-02-17T16:03:33.620Z,106.53
2018-02-17T16:06:01.887Z,108.70
2018-02-17T16:08:29.421Z,112.20
2018-02-17T16:10:57.049Z,108.47
2018-02-17T16:13:24.640Z,99.27
2018-02-17T16:15:52.240Z,97.00
2018-02-17T16:18:20.546Z,94.30
2018-02-17T16:20:48.248Z,91.17
2018-02-17T16:23:15.849Z,89.60
2018-02-17T16:25:44.256Z,88.27
2018-02-17T16:28:11.782Z,86.53
2018-02-17T16:30:39.318Z,81.00
2018-02-17T16:33:06.881Z,86.20
2018-02-17T16:35:34.421Z,85.23
2018-02-17T16:38:02.028Z,80.60
2018-02-17T16:40:30.423Z,76.23
2018-02-17T16:42:58.779Z,75.43
2018-02-17T16:45:26.339Z,79.93
2018-02-17T16:47:54.748Z,90.30
2018-02-17T16:50:23.012Z,84.87
2018-02-17T16:52:51.397Z,74.60
2018-02-17T16:55:19.808Z,73.90
2018-02-17T16:57:47.316Z,70.23
2018-02-17T17:00:14.790Z,74.27
2018-02-17T17:02:43.102Z,70.93
2018-02-17T17:05:10.641Z,67.80
2018-02-17T17:07:39.069Z,70.80
2018-02-17T17:10:06.548Z,66.70
2018-02-17T17:12:34.813Z,69.30
2018-02-17T17:15:02.318Z,73.03
2018-02-17T17:17:30.544Z,58.30
2018-02-17T17:19:58.153Z,61.50
2018-02-17T17:22:25.639Z,57.97
2018-02-17T17:24:53.132Z,58.40
2018-02-17T17:27:20.758Z,56.50
2018-02-17T17:29:48.535Z,52.37
2018-02-17T17:32:16.009Z,53.10
2018-02-17T17:34:43.821Z,54.20
2018-02-17T17:37:12.063Z,52.73
2018-02-17T17:39:39.549Z,52.67
2018-02-17T17:42:08.536Z,51.20
2018-02-17T17:44:36.768Z,48.60
2018-02-17T17:47:04.372Z,46.37
2018-02-17T17:49:33.132Z,42.90
2018-02-17T17:52:00.606Z,47.40
2018-02-17T17:54:28.080Z,49.03
2018-02-17T17:56:56.353Z,51.27
2018-02-17T17:59:24.656Z,50.63
2018-02-17T18:01:52.955Z,52.27
2018-02-17T18:04:20.486Z,49.80
2018-02-17T18:06:48.864Z,50.27
2018-02-17T18:09:17.126Z,51.90
2018-02-17T18:11:44.664Z,52.93
2018-02-17T18:14:12.152Z,51.73
2018-02-17T18:16:40.508Z,51.37
2018-02-17T18:19:07.980Z,51.67
2018-02-17T18:21:35.793Z,51.03
2018-02-17T18:24:03.316Z,48.07
2018-02-17T18:26:31.584Z,48.90
2018-02-17T18:28:59.157Z,49.00
2018-02-17T18:31:27.413Z,49.20
2018-02-17T18:33:54.886Z,49.50
2018-02-17T18:36:23.160Z,50.90
2018-02-17T18:38:57.745Z,50.77
2018-02-17T18:41:26.756Z,48.10
2018-02-17T18:43:54.456Z,50.03
2018-02-17T18:46:22.808Z,49.70
2018-02-17T18:48:50.581Z,47.07
2018-02-17T18:51:18.052Z,47.47
2018-02-17T18:53:45.525Z,52.63
2018-02-17T18:56:13.780Z,49.17
2018-02-17T18:58:41.334Z,48.63
2018-02-17T19:01:09.468Z,49.70
2018-02-17T19:03:37.176Z,54.73
2018-02-17T19:06:04.891Z,47.30
2018-02-17T19:08:32.409Z,51.33
2018-02-17T19:11:00.677Z,47.50
2018-02-17T19:13:28.207Z,46.83
2018-02-17T19:15:55.724Z,49.13
2018-02-17T19:18:23.973Z,47.97
2018-02-17T19:20:52.144Z,49.47
2018-02-17T19:23:19.832Z,47.37
2018-02-17T19:25:48.598Z,45.63
2018-02-17T19:28:16.341Z,49.17
2018-02-17T19:30:44.134Z,46.90
2018-02-17T19:33:12.629Z,47.80
2018-02-17T19:35:40.884Z,53.07
2018-02-17T19:38:08.544Z,48.97
2018-02-17T19:40:36.012Z,49.33
2018-02-17T19:43:03.566Z,50.57
2018-02-17T19:45:31.037Z,51.00
2018-02-17T19:47:58.516Z,48.70
2018-02-17T19:50:26.784Z,53.00
2018-02-17T19:52:55.036Z,55.10
2018-02-17T19:55:22.517Z,49.50
2018-02-17T19:57:55.768Z,48.53
2018-02-17T20:00:23.365Z,52.20
2018-02-17T20:02:50.861Z,49.33
2018-02-17T20:05:18.389Z,50.73
2018-02-17T20:07:46.648Z,50.67
2018-02-17T20:10:14.140Z,49.77
2018-02-17T20:12:42.401Z,51.00
2018-02-17T20:15:10.644Z,51.43
2018-02-17T20:17:38.178Z,50.73
2018-02-17T20:20:05.843Z,47.90
2018-02-17T20:22:33.325Z,53.10
2018-02-17T20:25:00.800Z,54.00
2018-02-17T20:27:28.421Z,51.90
2018-02-17T20:29:55.928Z,54.80
2018-02-17T20:32:23.408Z,51.13
2018-02-17T20:34:51.672Z,54.27
2018-02-17T20:37:19.994Z,52.73
2018-02-17T20:39:47.478Z,50.97
2018-02-17T20:42:15.040Z,52.27
2018-02-17T20:44:42.516Z,53.23
2018-02-17T20:47:10.807Z,52.93
2018-02-17T20:49:39.085Z,52.33
2018-02-17T20:52:06.615Z,53.03
2018-02-17T20:54:34.182Z,53.47
2018-02-17T20:57:01.688Z,55.40
2018-02-17T20:59:29.179Z,51.60
2018-02-17T21:01:56.723Z,50.80
2018-02-17T21:04:24.290Z,53.27
2018-02-17T21:06:51.836Z,64.00
2018-02-17T21:09:19.332Z,55.07
2018-02-17T21:11:46.970Z,55.63
2018-02-17T21:14:14.522Z,54.57
2018-02-17T21:16:42.094Z,55.97
2018-02-17T21:19:09.595Z,55.60
2018-02-17T21:21:37.082Z,55.23
2018-02-17T21:24:05.328Z,55.70
2018-02-17T21:26:33.008Z,57.97
2018-02-17T21:29:01.314Z,56.97
2018-02-17T21:31:28.888Z,61.80
2018-02-17T21:33:56.414Z,62.10
2018-02-17T21:36:23.906Z,60.80
2018-02-17T21:38:51.407Z,66.47
2018-02-17T21:41:18.932Z,66.93
2018-02-17T21:43:46.441Z,70.83
2018-02-17T21:46:13.921Z,71.43
2018-02-17T21:48:41.439Z,70.40
2018-02-17T21:51:08.956Z,75.70
2018-02-17T21:53:36.428Z,67.90
2018-02-17T21:56:03.921Z,63.90
2018-02-17T21:58:31.412Z,64.27
2018-02-17T22:00:59.656Z,62.17
2018-02-17T22:03:27.156Z,59.20
2018-02-17T22:05:55.442Z,59.50
2018-02-17T22:08:23.656Z,60.10
2018-02-17T22:10:51.151Z,63.40
2018-02-17T22:13:19.408Z,65.27
2018-02-17T22:15:46.891Z,61.17
2018-02-17T22:18:15.144Z,58.33
2018-02-17T22:20:42.628Z,59.50
2018-02-17T22:23:10.901Z,64.37
2018-02-17T22:25:39.153Z,57.50
2018-02-17T22:28:06.637Z,61.33
2018-02-17T22:30:34.908Z,63.43
2018-02-17T22:33:03.185Z,60.57
2018-02-17T22:35:31.479Z,58.70
2018-02-17T22:37:59.762Z,60.60
2018-02-17T22:40:27.238Z,56.50
2018-02-17T22:42:54.716Z,67.30
2018-02-17T22:45:22.216Z,68.83
2018-02-17T22:47:49.693Z,64.33
2018-02-17T22:50:17.945Z,62.07
2018-02-17T22:52:46.128Z,66.10
2018-02-17T22:55:14.404Z,63.60
2018-02-17T22:57:41.878Z,75.93
2018-02-17T23:00:10.345Z,64.27
2018-02-17T23:02:43.529Z,73.20
2018-02-17T23:05:19.056Z,68.80
2018-02-17T23:07:47.843Z,69.87
2018-02-17T23:10:15.493Z,71.13
2018-02-17T23:12:42.996Z,67.33
2018-02-17T23:15:10.703Z,65.80
2018-02-17T23:17:38.480Z,63.90
2018-02-17T23:20:06.385Z,65.63
2018-02-17T23:22:34.145Z,68.53
2018-02-17T23:25:01.966Z,68.03
2018-02-17T23:27:29.559Z,68.03
2018-02-17T23:29:58.012Z,67.40
2018-02-17T23:32:25.674Z,63.40
2018-02-17T23:34:53.201Z,66.63
2018-02-17T23:37:21.473Z,65.87
2018-02-17T23:39:49.744Z,61.00
2018-02-17T23:42:17.512Z,66.60
2018-02-17T23:44:45.219Z,64.97
2018-02-17T23:47:12.741Z,63.47
2018-02-17T23:49:41.005Z,65.03
2018-02-17T23:52:08.480Z,65.50
2018-02-17T23:54:36.724Z,62.70
2018-02-17T23:57:04.229Z,62.33
2018-02-17T23:59:31.824Z,60.77
